sensor_id;sensor_type;location;lat;lon;timestamp;P1;durP1;ratioP1;P2;durP2;ratioP2
12844;SDS011;68700;48.534;9.196;2024-03-17T00:00:14;11.53;;;8.23;;
12844;SDS011;68700;48.534;9.196;2024-03-17T00:03:38;9.57;;;8.27;;
12844;SDS011;68700;48.534;9.196;2024-03-17T00:06:59;11.60;;;8.87;;
12844;SDS011;68700;48.534;9.196;2024-03-17T00:10:21;10.30;;;9.17;;
12844;SDS011;68700;48.534;9.196;2024-03-17T00:13:43;10.87;;;8.37;;
12844;SDS011;68700;48.534;9.196;2024-03-17T00:17:06;9.47;;;8.27;;
12844;SDS011;68700;48.534;9.196;2024-03-17T00:20:28;11.23;;;8.30;;
12844;SDS011;68700;48.534;9.196;2024-03-17T00:23:52;11.87;;;10.03;;
12844;SDS011;68700;48.534;9.196;2024-03-17T00:27:13;12.70;;;10.07;;
12844;SDS011;68700;48.534;9.196;2024-03-17T00:30:35;9.73;;;8.73;;
12844;SDS011;68700;48.534;9.196;2024-03-17T00:33:58;13.40;;;9.70;;
12844;SDS011;68700;48.534;9.196;2024-03-17T00:37:19;10.53;;;9.30;;
12844;SDS011;68700;48.534;9.196;2024-03-17T00:40:41;10.63;;;9.53;;
12844;SDS011;68700;48.534;9.196;2024-03-17T00:44:05;11.60;;;9.47;;
12844;SDS011;68700;48.534;9.196;2024-03-17T00:47:27;10.90;;;9.30;;
12844;SDS011;68700;48.534;9.196;2024-03-17T00:50:55;12.20;;;9.33;;
12844;SDS011;68700;48.534;9.196;2024-03-17T00:54:17;13.13;;;10.57;;
12844;SDS011;68700;48.534;9.196;2024-03-17T00:57:38;12.13;;;10.20;;
12844;SDS011;68700;48.534;9.196;2024-03-17T01:01:00;12.10;;;9.03;;
12844;SDS011;68700;48.534;9.196;2024-03-17T01:04:21;10.57;;;8.70;;
12844;SDS011;68700;48.534;9.196;2024-03-17T01:07:44;10.47;;;8.43;;
12844;SDS011;68700;48.534;9.196;2024-03-17T01:11:07;10.27;;;7.90;;
12844;SDS011;68700;48.534;9.196;2024-03-17T01:14:29;9.07;;;8.00;;
12844;SDS011;68700;48.534;9.196;2024-03-17T01:17:51;11.37;;;9.23;;
12844;SDS011;68700;48.534;9.196;2024-03-17T01:21:12;9.87;;;8.80;;
12844;SDS011;68700;48.534;9.196;2024-03-17T01:24:35;9.93;;;8.57;;
12844;SDS011;68700;48.534;9.196;2024-03-17T01:27:59;10.83;;;8.83;;
12844;SDS011;68700;48.534;9.196;2024-03-17T01:31:21;11.20;;;9.10;;
12844;SDS011;68700;48.534;9.196;2024-03-17T01:34:43;11.40;;;9.63;;
12844;SDS011;68700;48.534;9.196;2024-03-17T01:38:06;14.73;;;10.27;;
12844;SDS011;68700;48.534;9.196;2024-03-17T01:41:31;12.27;;;8.67;;
12844;SDS011;68700;48.534;9.196;2024-03-17T01:44:52;10.50;;;8.77;;
12844;SDS011;68700;48.534;9.196;2024-03-17T01:48:15;11.13;;;8.93;;
12844;SDS011;68700;48.534;9.196;2024-03-17T01:51:39;12.83;;;9.57;;
12844;SDS011;68700;48.534;9.196;2024-03-17T01:55:01;12.43;;;9.10;;
12844;SDS011;68700;48.534;9.196;2024-03-17T01:58:25;10.27;;;8.80;;
12844;SDS011;68700;48.534;9.196;2024-03-17T02:01:51;10.50;;;9.40;;
12844;SDS011;68700;48.534;9.196;2024-03-17T02:05:12;12.13;;;8.87;;
12844;SDS011;68700;48.534;9.196;2024-03-17T02:08:46;10.87;;;9.37;;
12844;SDS011;68700;48.534;9.196;2024-03-17T02:12:09;12.37;;;9.00;;
12844;SDS011;68700;48.534;9.196;2024-03-17T02:15:33;10.70;;;8.80;;
12844;SDS011;68700;48.534;9.196;2024-03-17T02:18:55;11.73;;;8.97;;
12844;SDS011;68700;48.534;9.196;2024-03-17T02:22:17;14.63;;;9.43;;
12844;SDS011;68700;48.534;9.196;2024-03-17T02:25:39;10.63;;;9.37;;
12844;SDS011;68700;48.534;9.196;2024-03-17T02:29:02;9.90;;;8.13;;
12844;SDS011;68700;48.534;9.196;2024-03-17T02:32:23;11.17;;;8.17;;
12844;SDS011;68700;48.534;9.196;2024-03-17T02:35:47;10.33;;;8.90;;
12844;SDS011;68700;48.534;9.196;2024-03-17T02:39:09;11.73;;;10.10;;
12844;SDS011;68700;48.534;9.196;2024-03-17T02:42:48;12.90;;;9.87;;
12844;SDS011;68700;48.534;9.196;2024-03-17T02:46:11;13.90;;;9.67;;
12844;SDS011;68700;48.534;9.196;2024-03-17T02:49:33;11.20;;;10.00;;
12844;SDS011;68700;48.534;9.196;2024-03-17T02:52:57;12.20;;;10.57;;
12844;SDS011;68700;48.534;9.196;2024-03-17T02:56:20;14.40;;;10.37;;
12844;SDS011;68700;48.534;9.196;2024-03-17T02:59:41;14.83;;;10.03;;
12844;SDS011;68700;48.534;9.196;2024-03-17T03:03:05;11.67;;;9.60;;
12844;SDS011;68700;48.534;9.196;2024-03-17T03:06:27;10.70;;;8.93;;
12844;SDS011;68700;48.534;9.196;2024-03-17T03:09:52;11.03;;;9.40;;
12844;SDS011;68700;48.534;9.196;2024-03-17T03:13:16;11.30;;;8.97;;
12844;SDS011;68700;48.534;9.196;2024-03-17T03:16:38;11.53;;;8.60;;
12844;SDS011;68700;48.534;9.196;2024-03-17T03:20:00;10.27;;;9.13;;
12844;SDS011;68700;48.534;9.196;2024-03-17T03:23:22;9.30;;;8.30;;
12844;SDS011;68700;48.534;9.196;2024-03-17T03:26:44;11.63;;;8.23;;
12844;SDS011;68700;48.534;9.196;2024-03-17T03:30:08;9.20;;;8.23;;
12844;SDS011;68700;48.534;9.196;2024-03-17T03:33:31;8.10;;;7.27;;
12844;SDS011;68700;48.534;9.196;2024-03-17T03:36:52;9.60;;;8.47;;
12844;SDS011;68700;48.534;9.196;2024-03-17T03:40:16;10.80;;;8.07;;
12844;SDS011;68700;48.534;9.196;2024-03-17T03:43:38;8.90;;;7.77;;
12844;SDS011;68700;48.534;9.196;2024-03-17T03:47:01;8.50;;;7.60;;
12844;SDS011;68700;48.534;9.196;2024-03-17T03:50:23;9.47;;;8.03;;
12844;SDS011;68700;48.534;9.196;2024-03-17T03:53:45;9.50;;;7.53;;
12844;SDS011;68700;48.534;9.196;2024-03-17T03:57:07;8.67;;;7.73;;
12844;SDS011;68700;48.534;9.196;2024-03-17T04:00:28;9.63;;;7.83;;
12844;SDS011;68700;48.534;9.196;2024-03-17T04:03:53;9.20;;;7.63;;
12844;SDS011;68700;48.534;9.196;2024-03-17T04:07:15;8.47;;;7.63;;
12844;SDS011;68700;48.534;9.196;2024-03-17T04:10:36;8.97;;;6.40;;
12844;SDS011;68700;48.534;9.196;2024-03-17T04:13:58;8.67;;;6.77;;
12844;SDS011;68700;48.534;9.196;2024-03-17T04:17:21;7.37;;;6.07;;
12844;SDS011;68700;48.534;9.196;2024-03-17T04:20:45;6.97;;;6.27;;
12844;SDS011;68700;48.534;9.196;2024-03-17T04:24:07;8.97;;;6.37;;
12844;SDS011;68700;48.534;9.196;2024-03-17T04:27:29;8.10;;;6.50;;
12844;SDS011;68700;48.534;9.196;2024-03-17T04:30:51;6.93;;;5.73;;
12844;SDS011;68700;48.534;9.196;2024-03-17T04:34:12;6.93;;;6.27;;
12844;SDS011;68700;48.534;9.196;2024-03-17T04:37:35;8.00;;;6.43;;
12844;SDS011;68700;48.534;9.196;2024-03-17T04:40:59;7.73;;;6.80;;
12844;SDS011;68700;48.534;9.196;2024-03-17T04:44:25;6.70;;;6.00;;
12844;SDS011;68700;48.534;9.196;2024-03-17T04:47:47;8.07;;;6.17;;
12844;SDS011;68700;48.534;9.196;2024-03-17T04:51:14;8.03;;;6.33;;
12844;SDS011;68700;48.534;9.196;2024-03-17T04:54:38;7.57;;;5.47;;
12844;SDS011;68700;48.534;9.196;2024-03-17T04:58:01;6.83;;;6.13;;
12844;SDS011;68700;48.534;9.196;2024-03-17T05:01:23;9.57;;;7.53;;
12844;SDS011;68700;48.534;9.196;2024-03-17T05:04:45;8.67;;;7.50;;
12844;SDS011;68700;48.534;9.196;2024-03-17T05:08:07;7.50;;;6.27;;
12844;SDS011;68700;48.534;9.196;2024-03-17T05:11:31;7.77;;;6.70;;
12844;SDS011;68700;48.534;9.196;2024-03-17T05:14:53;8.03;;;6.67;;
12844;SDS011;68700;48.534;9.196;2024-03-17T05:18:15;7.07;;;6.37;;
12844;SDS011;68700;48.534;9.196;2024-03-17T05:21:37;7.53;;;6.13;;
12844;SDS011;68700;48.534;9.196;2024-03-17T05:24:59;7.17;;;6.47;;
12844;SDS011;68700;48.534;9.196;2024-03-17T05:28:22;10.97;;;7.43;;
12844;SDS011;68700;48.534;9.196;2024-03-17T05:31:44;10.70;;;7.40;;
12844;SDS011;68700;48.534;9.196;2024-03-17T05:35:07;8.27;;;7.33;;
12844;SDS011;68700;48.534;9.196;2024-03-17T05:38:30;8.87;;;6.97;;
12844;SDS011;68700;48.534;9.196;2024-03-17T05:41:52;7.73;;;6.53;;
12844;SDS011;68700;48.534;9.196;2024-03-17T05:45:15;7.83;;;6.57;;
12844;SDS011;68700;48.534;9.196;2024-03-17T05:48:38;8.60;;;6.67;;
12844;SDS011;68700;48.534;9.196;2024-03-17T05:52:00;8.43;;;7.00;;
12844;SDS011;68700;48.534;9.196;2024-03-17T05:55:22;8.23;;;6.77;;
12844;SDS011;68700;48.534;9.196;2024-03-17T05:58:44;8.30;;;6.00;;
12844;SDS011;68700;48.534;9.196;2024-03-17T06:02:08;8.33;;;6.43;;
12844;SDS011;68700;48.534;9.196;2024-03-17T06:05:34;10.60;;;7.30;;
12844;SDS011;68700;48.534;9.196;2024-03-17T06:08:56;10.20;;;7.00;;
12844;SDS011;68700;48.534;9.196;2024-03-17T06:12:18;11.00;;;7.93;;
12844;SDS011;68700;48.534;9.196;2024-03-17T06:15:40;8.87;;;7.37;;
12844;SDS011;68700;48.534;9.196;2024-03-17T06:19:04;10.30;;;7.97;;
12844;SDS011;68700;48.534;9.196;2024-03-17T06:22:27;9.43;;;7.40;;
12844;SDS011;68700;48.534;9.196;2024-03-17T06:25:49;8.57;;;6.70;;
12844;SDS011;68700;48.534;9.196;2024-03-17T06:29:12;9.87;;;7.83;;
12844;SDS011;68700;48.534;9.196;2024-03-17T06:32:35;9.37;;;7.63;;
12844;SDS011;68700;48.534;9.196;2024-03-17T06:35:58;9.37;;;7.37;;
12844;SDS011;68700;48.534;9.196;2024-03-17T06:39:24;10.20;;;7.47;;
12844;SDS011;68700;48.534;9.196;2024-03-17T06:42:46;10.60;;;7.87;;
12844;SDS011;68700;48.534;9.196;2024-03-17T06:46:07;8.67;;;7.67;;
12844;SDS011;68700;48.534;9.196;2024-03-17T06:49:29;9.30;;;7.53;;
12844;SDS011;68700;48.534;9.196;2024-03-17T06:52:52;10.47;;;8.27;;
12844;SDS011;68700;48.534;9.196;2024-03-17T06:56:14;9.40;;;7.97;;
12844;SDS011;68700;48.534;9.196;2024-03-17T06:59:36;10.63;;;8.93;;
12844;SDS011;68700;48.534;9.196;2024-03-17T07:02:59;10.73;;;9.57;;
12844;SDS011;68700;48.534;9.196;2024-03-17T07:06:20;9.33;;;8.23;;
12844;SDS011;68700;48.534;9.196;2024-03-17T07:09:46;8.90;;;8.00;;
12844;SDS011;68700;48.534;9.196;2024-03-17T07:13:08;8.07;;;7.27;;
12844;SDS011;68700;48.534;9.196;2024-03-17T07:16:30;8.90;;;7.40;;
12844;SDS011;68700;48.534;9.196;2024-03-17T07:19:52;9.40;;;7.53;;
12844;SDS011;68700;48.534;9.196;2024-03-17T07:23:14;8.77;;;7.57;;
12844;SDS011;68700;48.534;9.196;2024-03-17T07:26:38;8.93;;;7.60;;
12844;SDS011;68700;48.534;9.196;2024-03-17T07:30:00;11.23;;;8.20;;
12844;SDS011;68700;48.534;9.196;2024-03-17T07:33:22;11.17;;;8.33;;
12844;SDS011;68700;48.534;9.196;2024-03-17T07:36:45;10.00;;;8.93;;
12844;SDS011;68700;48.534;9.196;2024-03-17T07:40:07;9.50;;;8.50;;
12844;SDS011;68700;48.534;9.196;2024-03-17T07:43:33;9.60;;;8.60;;
12844;SDS011;68700;48.534;9.196;2024-03-17T07:46:55;12.43;;;9.60;;
12844;SDS011;68700;48.534;9.196;2024-03-17T07:50:17;15.00;;;12.10;;
12844;SDS011;68700;48.534;9.196;2024-03-17T07:53:39;17.77;;;15.60;;
12844;SDS011;68700;48.534;9.196;2024-03-17T07:57:02;14.13;;;12.70;;
12844;SDS011;68700;48.534;9.196;2024-03-17T08:00:25;21.57;;;18.70;;
12844;SDS011;68700;48.534;9.196;2024-03-17T08:03:47;24.90;;;18.73;;
12844;SDS011;68700;48.534;9.196;2024-03-17T08:07:09;18.23;;;14.10;;
12844;SDS011;68700;48.534;9.196;2024-03-17T08:10:31;13.70;;;11.63;;
12844;SDS011;68700;48.534;9.196;2024-03-17T08:13:53;17.83;;;14.40;;
12844;SDS011;68700;48.534;9.196;2024-03-17T08:17:16;16.23;;;13.70;;
12844;SDS011;68700;48.534;9.196;2024-03-17T08:20:38;19.70;;;14.57;;
12844;SDS011;68700;48.534;9.196;2024-03-17T08:24:01;17.80;;;13.37;;
12844;SDS011;68700;48.534;9.196;2024-03-17T08:27:23;19.60;;;15.20;;
12844;SDS011;68700;48.534;9.196;2024-03-17T08:30:50;29.97;;;21.53;;
12844;SDS011;68700;48.534;9.196;2024-03-17T08:34:13;30.93;;;22.23;;
12844;SDS011;68700;48.534;9.196;2024-03-17T08:37:38;29.23;;;24.20;;
12844;SDS011;68700;48.534;9.196;2024-03-17T08:41:02;31.53;;;22.30;;
12844;SDS011;68700;48.534;9.196;2024-03-17T08:44:24;25.50;;;19.37;;
12844;SDS011;68700;48.534;9.196;2024-03-17T08:47:50;35.97;;;26.10;;
12844;SDS011;68700;48.534;9.196;2024-03-17T08:51:14;36.87;;;27.60;;
12844;SDS011;68700;48.534;9.196;2024-03-17T08:54:35;32.13;;;25.30;;
12844;SDS011;68700;48.534;9.196;2024-03-17T08:57:57;29.83;;;21.57;;
12844;SDS011;68700;48.534;9.196;2024-03-17T09:01:19;21.13;;;15.97;;
12844;SDS011;68700;48.534;9.196;2024-03-17T09:04:41;20.00;;;14.87;;
12844;SDS011;68700;48.534;9.196;2024-03-17T09:08:05;13.17;;;10.53;;
12844;SDS011;68700;48.534;9.196;2024-03-17T09:11:28;18.30;;;12.20;;
12844;SDS011;68700;48.534;9.196;2024-03-17T09:14:50;17.77;;;14.67;;
12844;SDS011;68700;48.534;9.196;2024-03-17T09:18:12;23.07;;;16.93;;
12844;SDS011;68700;48.534;9.196;2024-03-17T09:21:34;28.20;;;20.53;;
12844;SDS011;68700;48.534;9.196;2024-03-17T09:24:57;26.33;;;18.73;;
12844;SDS011;68700;48.534;9.196;2024-03-17T09:28:19;21.67;;;16.07;;
12844;SDS011;68700;48.534;9.196;2024-03-17T09:31:40;17.98;;;13.75;;
12844;SDS011;68700;48.534;9.196;2024-03-17T09:35:02;20.50;;;15.50;;
12844;SDS011;68700;48.534;9.196;2024-03-17T09:38:25;14.27;;;11.23;;
12844;SDS011;68700;48.534;9.196;2024-03-17T09:41:48;21.17;;;13.27;;
12844;SDS011;68700;48.534;9.196;2024-03-17T09:45:11;21.43;;;15.67;;
12844;SDS011;68700;48.534;9.196;2024-03-17T09:48:36;25.00;;;17.00;;
12844;SDS011;68700;48.534;9.196;2024-03-17T09:51:57;17.03;;;13.17;;
12844;SDS011;68700;48.534;9.196;2024-03-17T09:55:20;17.77;;;12.40;;
12844;SDS011;68700;48.534;9.196;2024-03-17T09:58:43;22.93;;;14.50;;
12844;SDS011;68700;48.534;9.196;2024-03-17T10:02:06;17.50;;;12.57;;
12844;SDS011;68700;48.534;9.196;2024-03-17T10:05:38;19.90;;;13.17;;
12844;SDS011;68700;48.534;9.196;2024-03-17T10:09:00;19.83;;;13.03;;
12844;SDS011;68700;48.534;9.196;2024-03-17T10:12:25;16.43;;;11.70;;
12844;SDS011;68700;48.534;9.196;2024-03-17T10:15:49;14.90;;;10.83;;
12844;SDS011;68700;48.534;9.196;2024-03-17T10:19:12;15.47;;;10.13;;
12844;SDS011;68700;48.534;9.196;2024-03-17T10:22:34;8.67;;;5.63;;
12844;SDS011;68700;48.534;9.196;2024-03-17T10:25:56;10.77;;;5.90;;
12844;SDS011;68700;48.534;9.196;2024-03-17T10:29:21;8.83;;;6.73;;
12844;SDS011;68700;48.534;9.196;2024-03-17T10:32:46;8.13;;;6.67;;
12844;SDS011;68700;48.534;9.196;2024-03-17T10:36:15;11.23;;;7.60;;
12844;SDS011;68700;48.534;9.196;2024-03-17T10:39:39;4.30;;;3.20;;
12844;SDS011;68700;48.534;9.196;2024-03-17T10:43:01;6.40;;;4.00;;
12844;SDS011;68700;48.534;9.196;2024-03-17T10:46:23;5.70;;;4.20;;
12844;SDS011;68700;48.534;9.196;2024-03-17T10:49:49;7.20;;;4.70;;
12844;SDS011;68700;48.534;9.196;2024-03-17T10:53:13;5.07;;;3.10;;
12844;SDS011;68700;48.534;9.196;2024-03-17T10:56:46;6.63;;;3.57;;
12844;SDS011;68700;48.534;9.196;2024-03-17T11:00:08;4.63;;;3.70;;
12844;SDS011;68700;48.534;9.196;2024-03-17T11:03:33;6.60;;;3.80;;
12844;SDS011;68700;48.534;9.196;2024-03-17T11:06:56;3.33;;;3.03;;
12844;SDS011;68700;48.534;9.196;2024-03-17T11:10:21;4.13;;;3.33;;
12844;SDS011;68700;48.534;9.196;2024-03-17T11:13:48;4.37;;;2.07;;
12844;SDS011;68700;48.534;9.196;2024-03-17T11:17:16;3.20;;;2.20;;
12844;SDS011;68700;48.534;9.196;2024-03-17T11:20:39;3.30;;;1.77;;
12844;SDS011;68700;48.534;9.196;2024-03-17T11:24:03;2.77;;;1.47;;
12844;SDS011;68700;48.534;9.196;2024-03-17T11:27:41;1.87;;;1.37;;
12844;SDS011;68700;48.534;9.196;2024-03-17T11:31:03;3.60;;;1.60;;
12844;SDS011;68700;48.534;9.196;2024-03-17T11:34:29;3.30;;;1.70;;
12844;SDS011;68700;48.534;9.196;2024-03-17T11:37:59;3.40;;;1.70;;
12844;SDS011;68700;48.534;9.196;2024-03-17T11:41:32;3.63;;;1.70;;
12844;SDS011;68700;48.534;9.196;2024-03-17T11:45:01;3.53;;;1.77;;
12844;SDS011;68700;48.534;9.196;2024-03-17T11:48:27;2.03;;;1.30;;
12844;SDS011;68700;48.534;9.196;2024-03-17T11:51:50;1.97;;;1.40;;
12844;SDS011;68700;48.534;9.196;2024-03-17T11:55:15;2.20;;;1.30;;
12844;SDS011;68700;48.534;9.196;2024-03-17T11:58:42;2.40;;;1.57;;
12844;SDS011;68700;48.534;9.196;2024-03-17T12:02:09;4.07;;;1.30;;
12844;SDS011;68700;48.534;9.196;2024-03-17T12:05:39;3.13;;;1.50;;
12844;SDS011;68700;48.534;9.196;2024-03-17T12:09:08;2.93;;;1.40;;
12844;SDS011;68700;48.534;9.196;2024-03-17T12:12:31;2.00;;;1.30;;
12844;SDS011;68700;48.534;9.196;2024-03-17T12:19:45;1.90;;;1.10;;
12844;SDS011;68700;48.534;9.196;2024-03-17T12:23:09;2.27;;;1.23;;
12844;SDS011;68700;48.534;9.196;2024-03-17T12:26:34;2.27;;;1.30;;
12844;SDS011;68700;48.534;9.196;2024-03-17T12:29:56;2.20;;;1.30;;
12844;SDS011;68700;48.534;9.196;2024-03-17T12:33:19;2.00;;;1.20;;
12844;SDS011;68700;48.534;9.196;2024-03-17T12:36:42;4.00;;;1.40;;
12844;SDS011;68700;48.534;9.196;2024-03-17T12:40:05;1.80;;;1.20;;
12844;SDS011;68700;48.534;9.196;2024-03-17T12:43:47;2.50;;;1.53;;
12844;SDS011;68700;48.534;9.196;2024-03-17T12:47:09;6.77;;;1.50;;
12844;SDS011;68700;48.534;9.196;2024-03-17T12:50:36;2.87;;;1.53;;
12844;SDS011;68700;48.534;9.196;2024-03-17T12:54:15;2.97;;;1.30;;
12844;SDS011;68700;48.534;9.196;2024-03-17T12:57:37;2.47;;;1.30;;
12844;SDS011;68700;48.534;9.196;2024-03-17T13:01:17;2.70;;;1.40;;
12844;SDS011;68700;48.534;9.196;2024-03-17T13:04:39;1.27;;;1.17;;
12844;SDS011;68700;48.534;9.196;2024-03-17T13:08:01;2.93;;;1.20;;
12844;SDS011;68700;48.534;9.196;2024-03-17T13:11:25;2.73;;;1.30;;
12844;SDS011;68700;48.534;9.196;2024-03-17T13:14:48;4.07;;;1.63;;
12844;SDS011;68700;48.534;9.196;2024-03-17T13:18:15;3.77;;;1.40;;
12844;SDS011;68700;48.534;9.196;2024-03-17T13:21:39;1.77;;;1.20;;
12844;SDS011;68700;48.534;9.196;2024-03-17T13:25:01;1.43;;;1.13;;
12844;SDS011;68700;48.534;9.196;2024-03-17T13:28:25;1.37;;;1.00;;
12844;SDS011;68700;48.534;9.196;2024-03-17T13:31:46;2.10;;;1.40;;
12844;SDS011;68700;48.534;9.196;2024-03-17T13:35:08;4.43;;;1.50;;
12844;SDS011;68700;48.534;9.196;2024-03-17T13:38:36;1.77;;;1.40;;
12844;SDS011;68700;48.534;9.196;2024-03-17T13:41:59;2.57;;;1.30;;
12844;SDS011;68700;48.534;9.196;2024-03-17T13:45:25;2.83;;;1.50;;
12844;SDS011;68700;48.534;9.196;2024-03-17T13:48:50;3.60;;;1.23;;
12844;SDS011;68700;48.534;9.196;2024-03-17T13:52:14;1.93;;;1.10;;
12844;SDS011;68700;48.534;9.196;2024-03-17T13:55:36;1.87;;;1.10;;
12844;SDS011;68700;48.534;9.196;2024-03-17T13:58:58;2.90;;;1.40;;
12844;SDS011;68700;48.534;9.196;2024-03-17T14:02:21;2.53;;;1.20;;
12844;SDS011;68700;48.534;9.196;2024-03-17T14:05:43;2.83;;;1.73;;
12844;SDS011;68700;48.534;9.196;2024-03-17T14:09:05;3.57;;;1.47;;
12844;SDS011;68700;48.534;9.196;2024-03-17T14:12:29;2.60;;;1.20;;
12844;SDS011;68700;48.534;9.196;2024-03-17T14:15:51;3.77;;;1.50;;
12844;SDS011;68700;48.534;9.196;2024-03-17T14:19:18;3.40;;;1.37;;
12844;SDS011;68700;48.534;9.196;2024-03-17T14:22:40;3.43;;;1.20;;
12844;SDS011;68700;48.534;9.196;2024-03-17T14:26:07;2.23;;;1.30;;
12844;SDS011;68700;48.534;9.196;2024-03-17T14:29:29;1.80;;;1.20;;
12844;SDS011;68700;48.534;9.196;2024-03-17T14:32:51;3.17;;;1.33;;
12844;SDS011;68700;48.534;9.196;2024-03-17T14:36:15;1.53;;;1.10;;
12844;SDS011;68700;48.534;9.196;2024-03-17T14:39:38;1.67;;;1.17;;
12844;SDS011;68700;48.534;9.196;2024-03-17T14:43:00;4.80;;;1.30;;
12844;SDS011;68700;48.534;9.196;2024-03-17T14:46:23;1.73;;;1.07;;
12844;SDS011;68700;48.534;9.196;2024-03-17T14:49:45;2.77;;;1.20;;
12844;SDS011;68700;48.534;9.196;2024-03-17T14:53:08;3.10;;;1.30;;
12844;SDS011;68700;48.534;9.196;2024-03-17T14:56:30;3.80;;;1.30;;
12844;SDS011;68700;48.534;9.196;2024-03-17T14:59:51;2.13;;;1.33;;
12844;SDS011;68700;48.534;9.196;2024-03-17T15:03:13;2.50;;;1.30;;
12844;SDS011;68700;48.534;9.196;2024-03-17T15:06:35;3.23;;;1.50;;
12844;SDS011;68700;48.534;9.196;2024-03-17T15:09:58;2.10;;;1.40;;
12844;SDS011;68700;48.534;9.196;2024-03-17T15:13:20;1.87;;;1.00;;
12844;SDS011;68700;48.534;9.196;2024-03-17T15:16:43;3.27;;;1.47;;
12844;SDS011;68700;48.534;9.196;2024-03-17T15:20:06;2.50;;;1.33;;
12844;SDS011;68700;48.534;9.196;2024-03-17T15:23:36;1.53;;;1.00;;
12844;SDS011;68700;48.534;9.196;2024-03-17T15:27:01;2.67;;;1.00;;
12844;SDS011;68700;48.534;9.196;2024-03-17T15:30:23;3.03;;;1.40;;
12844;SDS011;68700;48.534;9.196;2024-03-17T15:33:45;3.53;;;1.20;;
12844;SDS011;68700;48.534;9.196;2024-03-17T15:37:08;3.03;;;1.30;;
12844;SDS011;68700;48.534;9.196;2024-03-17T15:40:30;3.37;;;1.27;;
12844;SDS011;68700;48.534;9.196;2024-03-17T15:43:53;2.13;;;1.03;;
12844;SDS011;68700;48.534;9.196;2024-03-17T15:47:15;2.70;;;1.07;;
12844;SDS011;68700;48.534;9.196;2024-03-17T15:50:37;2.33;;;1.10;;
12844;SDS011;68700;48.534;9.196;2024-03-17T15:54:01;2.90;;;1.03;;
12844;SDS011;68700;48.534;9.196;2024-03-17T15:57:23;3.23;;;1.10;;
12844;SDS011;68700;48.534;9.196;2024-03-17T16:00:47;4.80;;;1.30;;
12844;SDS011;68700;48.534;9.196;2024-03-17T16:04:09;1.40;;;1.17;;
12844;SDS011;68700;48.534;9.196;2024-03-17T16:07:32;2.50;;;1.70;;
12844;SDS011;68700;48.534;9.196;2024-03-17T16:10:55;2.90;;;1.73;;
12844;SDS011;68700;48.534;9.196;2024-03-17T16:14:20;3.30;;;2.10;;
12844;SDS011;68700;48.534;9.196;2024-03-17T16:17:45;3.97;;;1.50;;
12844;SDS011;68700;48.534;9.196;2024-03-17T16:21:08;2.60;;;1.47;;
12844;SDS011;68700;48.534;9.196;2024-03-17T16:24:31;3.77;;;1.90;;
12844;SDS011;68700;48.534;9.196;2024-03-17T16:27:55;5.20;;;2.67;;
12844;SDS011;68700;48.534;9.196;2024-03-17T16:31:18;3.17;;;1.63;;
12844;SDS011;68700;48.534;9.196;2024-03-17T16:34:43;2.17;;;1.13;;
12844;SDS011;68700;48.534;9.196;2024-03-17T16:38:04;2.87;;;1.60;;
12844;SDS011;68700;48.534;9.196;2024-03-17T16:41:27;2.97;;;1.80;;
12844;SDS011;68700;48.534;9.196;2024-03-17T16:44:52;2.17;;;1.40;;
12844;SDS011;68700;48.534;9.196;2024-03-17T16:48:18;2.87;;;1.37;;
12844;SDS011;68700;48.534;9.196;2024-03-17T16:51:42;2.27;;;1.40;;
12844;SDS011;68700;48.534;9.196;2024-03-17T16:55:05;1.60;;;1.30;;
12844;SDS011;68700;48.534;9.196;2024-03-17T16:58:28;2.40;;;1.30;;
12844;SDS011;68700;48.534;9.196;2024-03-17T17:01:50;1.40;;;1.30;;
12844;SDS011;68700;48.534;9.196;2024-03-17T17:05:12;3.73;;;1.60;;
12844;SDS011;68700;48.534;9.196;2024-03-17T17:08:36;1.97;;;1.30;;
12844;SDS011;68700;48.534;9.196;2024-03-17T17:11:58;2.50;;;1.40;;
12844;SDS011;68700;48.534;9.196;2024-03-17T17:15:20;2.97;;;1.50;;
12844;SDS011;68700;48.534;9.196;2024-03-17T17:18:49;2.50;;;1.30;;
12844;SDS011;68700;48.534;9.196;2024-03-17T17:22:13;2.80;;;1.67;;
12844;SDS011;68700;48.534;9.196;2024-03-17T17:25:37;3.10;;;1.70;;
12844;SDS011;68700;48.534;9.196;2024-03-17T17:29:00;2.47;;;1.63;;
12844;SDS011;68700;48.534;9.196;2024-03-17T17:32:22;2.30;;;1.93;;
12844;SDS011;68700;48.534;9.196;2024-03-17T17:35:44;3.50;;;2.33;;
12844;SDS011;68700;48.534;9.196;2024-03-17T17:39:06;3.10;;;1.90;;
12844;SDS011;68700;48.534;9.196;2024-03-17T17:42:31;3.50;;;1.87;;
12844;SDS011;68700;48.534;9.196;2024-03-17T17:45:53;3.63;;;2.03;;
12844;SDS011;68700;48.534;9.196;2024-03-17T17:49:15;2.60;;;1.90;;
12844;SDS011;68700;48.534;9.196;2024-03-17T17:52:36;3.30;;;2.20;;
12844;SDS011;68700;48.534;9.196;2024-03-17T17:55:58;4.17;;;2.30;;
12844;SDS011;68700;48.534;9.196;2024-03-17T17:59:22;4.50;;;2.47;;
12844;SDS011;68700;48.534;9.196;2024-03-17T18:02:44;4.37;;;2.17;;
12844;SDS011;68700;48.534;9.196;2024-03-17T18:06:06;5.33;;;2.33;;
12844;SDS011;68700;48.534;9.196;2024-03-17T18:09:28;5.00;;;2.67;;
12844;SDS011;68700;48.534;9.196;2024-03-17T18:12:49;5.40;;;2.43;;
12844;SDS011;68700;48.534;9.196;2024-03-17T18:16:14;3.93;;;2.60;;
12844;SDS011;68700;48.534;9.196;2024-03-17T18:19:36;4.30;;;2.40;;
12844;SDS011;68700;48.534;9.196;2024-03-17T18:22:58;3.67;;;2.40;;
12844;SDS011;68700;48.534;9.196;2024-03-17T18:26:20;3.17;;;2.40;;
12844;SDS011;68700;48.534;9.196;2024-03-17T18:29:43;4.23;;;2.40;;
12844;SDS011;68700;48.534;9.196;2024-03-17T18:33:06;3.70;;;2.60;;
12844;SDS011;68700;48.534;9.196;2024-03-17T18:36:28;3.63;;;2.70;;
12844;SDS011;68700;48.534;9.196;2024-03-17T18:39:50;4.60;;;2.90;;
12844;SDS011;68700;48.534;9.196;2024-03-17T18:43:12;5.10;;;2.70;;
12844;SDS011;68700;48.534;9.196;2024-03-17T18:46:34;5.17;;;3.33;;
12844;SDS011;68700;48.534;9.196;2024-03-17T18:49:57;5.70;;;3.00;;
12844;SDS011;68700;48.534;9.196;2024-03-17T18:53:19;4.97;;;2.93;;
12844;SDS011;68700;48.534;9.196;2024-03-17T18:56:41;4.60;;;3.03;;
12844;SDS011;68700;48.534;9.196;2024-03-17T19:00:03;4.67;;;3.00;;
12844;SDS011;68700;48.534;9.196;2024-03-17T19:03:32;5.20;;;3.60;;
12844;SDS011;68700;48.534;9.196;2024-03-17T19:06:55;7.07;;;3.70;;
12844;SDS011;68700;48.534;9.196;2024-03-17T19:10:17;6.03;;;4.20;;
12844;SDS011;68700;48.534;9.196;2024-03-17T19:13:41;7.10;;;4.47;;
12844;SDS011;68700;48.534;9.196;2024-03-17T19:17:03;6.27;;;4.87;;
12844;SDS011;68700;48.534;9.196;2024-03-17T19:20:25;8.63;;;5.70;;
12844;SDS011;68700;48.534;9.196;2024-03-17T19:23:48;8.63;;;6.00;;
12844;SDS011;68700;48.534;9.196;2024-03-17T19:27:10;7.77;;;5.80;;
12844;SDS011;68700;48.534;9.196;2024-03-17T19:30:32;6.53;;;4.53;;
12844;SDS011;68700;48.534;9.196;2024-03-17T19:33:54;7.67;;;4.60;;
12844;SDS011;68700;48.534;9.196;2024-03-17T19:37:18;6.60;;;4.70;;
12844;SDS011;68700;48.534;9.196;2024-03-17T19:40:42;6.87;;;4.50;;
12844;SDS011;68700;48.534;9.196;2024-03-17T19:44:12;6.23;;;4.23;;
12844;SDS011;68700;48.534;9.196;2024-03-17T19:47:34;6.23;;;3.90;;
12844;SDS011;68700;48.534;9.196;2024-03-17T19:50:56;6.10;;;4.10;;
12844;SDS011;68700;48.534;9.196;2024-03-17T19:54:18;5.60;;;4.03;;
12844;SDS011;68700;48.534;9.196;2024-03-17T19:57:41;8.03;;;6.33;;
12844;SDS011;68700;48.534;9.196;2024-03-17T20:01:03;9.10;;;4.67;;
12844;SDS011;68700;48.534;9.196;2024-03-17T20:04:25;7.27;;;6.10;;
12844;SDS011;68700;48.534;9.196;2024-03-17T20:07:47;5.97;;;4.17;;
12844;SDS011;68700;48.534;9.196;2024-03-17T20:11:09;5.93;;;3.50;;
12844;SDS011;68700;48.534;9.196;2024-03-17T20:14:32;5.40;;;3.67;;
12844;SDS011;68700;48.534;9.196;2024-03-17T20:17:55;6.33;;;4.03;;